sensor_id;sensor_type;location;lat;lon;timestamp;P1;durP1;ratioP1;P2;durP2;ratioP2
27438;SDS011;14887;51.252;7.470;2022-11-20T00:01:04;15.70;;;6.97;;
27438;SDS011;14887;51.252;7.470;2022-11-20T00:03:30;19.17;;;7.87;;
27438;SDS011;14887;51.252;7.470;2022-11-20T00:06:00;16.23;;;7.63;;
27438;SDS011;14887;51.252;7.470;2022-11-20T00:08:26;15.47;;;7.20;;
27438;SDS011;14887;51.252;7.470;2022-11-20T00:10:52;21.90;;;7.37;;
27438;SDS011;14887;51.252;7.470;2022-11-20T00:13:18;18.57;;;7.93;;
27438;SDS011;14887;51.252;7.470;2022-11-20T00:15:44;14.47;;;6.63;;
27438;SDS011;14887;51.252;7.470;2022-11-20T00:18:10;15.50;;;7.17;;
27438;SDS011;14887;51.252;7.470;2022-11-20T00:20:36;18.73;;;8.40;;
27438;SDS011;14887;51.252;7.470;2022-11-20T00:23:02;17.00;;;9.40;;
27438;SDS011;14887;51.252;7.470;2022-11-20T00:25:28;16.10;;;8.23;;
27438;SDS011;14887;51.252;7.470;2022-11-20T00:27:54;25.97;;;9.20;;
27438;SDS011;14887;51.252;7.470;2022-11-20T00:30:20;20.07;;;8.17;;
27438;SDS011;14887;51.252;7.470;2022-11-20T00:32:46;17.40;;;7.67;;
27438;SDS011;14887;51.252;7.470;2022-11-20T00:35:12;20.10;;;8.67;;
27438;SDS011;14887;51.252;7.470;2022-11-20T00:37:38;20.07;;;7.40;;
27438;SDS011;14887;51.252;7.470;2022-11-20T00:40:04;18.90;;;8.50;;
27438;SDS011;14887;51.252;7.470;2022-11-20T00:42:30;23.47;;;9.97;;
27438;SDS011;14887;51.252;7.470;2022-11-20T00:44:57;20.17;;;7.27;;
27438;SDS011;14887;51.252;7.470;2022-11-20T00:47:23;18.33;;;8.07;;
27438;SDS011;14887;51.252;7.470;2022-11-20T00:49:49;25.13;;;10.20;;
27438;SDS011;14887;51.252;7.470;2022-11-20T00:52:15;24.27;;;9.93;;
27438;SDS011;14887;51.252;7.470;2022-11-20T00:54:41;19.63;;;9.00;;
27438;SDS011;14887;51.252;7.470;2022-11-20T00:57:07;25.27;;;10.37;;
27438;SDS011;14887;51.252;7.470;2022-11-20T00:59:33;18.43;;;7.43;;
27438;SDS011;14887;51.252;7.470;2022-11-20T01:01:59;22.17;;;7.23;;
27438;SDS011;14887;51.252;7.470;2022-11-20T01:04:25;23.43;;;9.03;;
27438;SDS011;14887;51.252;7.470;2022-11-20T01:06:51;21.20;;;6.87;;
27438;SDS011;14887;51.252;7.470;2022-11-20T01:09:17;25.03;;;8.90;;
27438;SDS011;14887;51.252;7.470;2022-11-20T01:11:43;22.80;;;8.30;;
27438;SDS011;14887;51.252;7.470;2022-11-20T01:14:11;24.87;;;9.90;;
27438;SDS011;14887;51.252;7.470;2022-11-20T01:16:38;22.53;;;10.33;;
27438;SDS011;14887;51.252;7.470;2022-11-20T01:19:06;25.57;;;8.13;;
27438;SDS011;14887;51.252;7.470;2022-11-20T01:21:36;34.10;;;11.30;;
27438;SDS011;14887;51.252;7.470;2022-11-20T01:24:03;21.07;;;8.37;;
27438;SDS011;14887;51.252;7.470;2022-11-20T01:26:30;26.53;;;10.37;;
27438;SDS011;14887;51.252;7.470;2022-11-20T01:28:57;27.40;;;11.03;;
27438;SDS011;14887;51.252;7.470;2022-11-20T01:31:24;20.37;;;8.33;;
27438;SDS011;14887;51.252;7.470;2022-11-20T01:33:52;19.97;;;8.50;;
27438;SDS011;14887;51.252;7.470;2022-11-20T01:36:18;27.57;;;10.90;;
27438;SDS011;14887;51.252;7.470;2022-11-20T01:38:45;24.40;;;9.83;;
27438;SDS011;14887;51.252;7.470;2022-11-20T01:41:11;35.10;;;9.33;;
27438;SDS011;14887;51.252;7.470;2022-11-20T01:44:01;29.97;;;10.23;;
27438;SDS011;14887;51.252;7.470;2022-11-20T01:46:27;25.90;;;10.87;;
27438;SDS011;14887;51.252;7.470;2022-11-20T01:53:45;25.93;;;9.23;;
27438;SDS011;14887;51.252;7.470;2022-11-20T01:56:13;25.63;;;9.73;;
27438;SDS011;14887;51.252;7.470;2022-11-20T01:58:41;25.93;;;9.83;;
27438;SDS011;14887;51.252;7.470;2022-11-20T02:01:07;24.37;;;8.73;;
27438;SDS011;14887;51.252;7.470;2022-11-20T02:03:34;26.20;;;9.57;;
27438;SDS011;14887;51.252;7.470;2022-11-20T02:06:23;30.20;;;9.17;;
27438;SDS011;14887;51.252;7.470;2022-11-20T02:08:46;34.27;;;9.73;;
27438;SDS011;14887;51.252;7.470;2022-11-20T02:11:12;35.03;;;10.50;;
27438;SDS011;14887;51.252;7.470;2022-11-20T02:13:38;26.80;;;11.67;;
27438;SDS011;14887;51.252;7.470;2022-11-20T02:16:23;37.20;;;11.63;;
27438;SDS011;14887;51.252;7.470;2022-11-20T02:18:50;36.80;;;12.43;;
27438;SDS011;14887;51.252;7.470;2022-11-20T02:26:23;26.97;;;10.97;;
27438;SDS011;14887;51.252;7.470;2022-11-20T02:28:50;26.83;;;10.10;;
27438;SDS011;14887;51.252;7.470;2022-11-20T02:31:16;32.53;;;9.83;;
27438;SDS011;14887;51.252;7.470;2022-11-20T02:33:42;34.87;;;12.13;;
27438;SDS011;14887;51.252;7.470;2022-11-20T02:36:09;32.73;;;11.30;;
27438;SDS011;14887;51.252;7.470;2022-11-20T02:38:37;36.50;;;12.27;;
27438;SDS011;14887;51.252;7.470;2022-11-20T02:41:03;38.57;;;13.07;;
27438;SDS011;14887;51.252;7.470;2022-11-20T02:43:29;35.60;;;13.40;;
27438;SDS011;14887;51.252;7.470;2022-11-20T02:45:55;41.67;;;13.17;;
27438;SDS011;14887;51.252;7.470;2022-11-20T02:48:21;36.67;;;12.50;;
27438;SDS011;14887;51.252;7.470;2022-11-20T02:50:47;43.43;;;13.97;;
27438;SDS011;14887;51.252;7.470;2022-11-20T02:53:13;41.60;;;13.53;;
27438;SDS011;14887;51.252;7.470;2022-11-20T02:55:39;35.83;;;13.03;;
27438;SDS011;14887;51.252;7.470;2022-11-20T02:58:05;46.13;;;13.17;;
27438;SDS011;14887;51.252;7.470;2022-11-20T03:00:31;57.60;;;13.87;;
27438;SDS011;14887;51.252;7.470;2022-11-20T03:02:57;38.83;;;12.33;;
27438;SDS011;14887;51.252;7.470;2022-11-20T03:05:23;36.53;;;12.70;;
27438;SDS011;14887;51.252;7.470;2022-11-20T03:07:49;38.73;;;12.30;;
27438;SDS011;14887;51.252;7.470;2022-11-20T03:10:15;33.67;;;14.20;;
27438;SDS011;14887;51.252;7.470;2022-11-20T03:12:41;34.57;;;11.93;;
27438;SDS011;14887;51.252;7.470;2022-11-20T03:15:07;30.10;;;11.90;;
27438;SDS011;14887;51.252;7.470;2022-11-20T03:17:33;42.23;;;15.10;;
27438;SDS011;14887;51.252;7.470;2022-11-20T03:19:59;38.10;;;14.10;;
27438;SDS011;14887;51.252;7.470;2022-11-20T03:22:25;41.60;;;14.67;;
27438;SDS011;14887;51.252;7.470;2022-11-20T03:24:54;34.90;;;13.37;;
27438;SDS011;14887;51.252;7.470;2022-11-20T03:27:20;36.40;;;13.47;;
27438;SDS011;14887;51.252;7.470;2022-11-20T03:29:46;39.60;;;15.40;;
27438;SDS011;14887;51.252;7.470;2022-11-20T03:32:12;41.30;;;14.50;;
27438;SDS011;14887;51.252;7.470;2022-11-20T03:34:38;43.47;;;14.40;;
27438;SDS011;14887;51.252;7.470;2022-11-20T03:37:04;40.80;;;15.90;;
27438;SDS011;14887;51.252;7.470;2022-11-20T03:39:30;33.53;;;12.77;;
27438;SDS011;14887;51.252;7.470;2022-11-20T03:41:55;48.80;;;13.93;;
27438;SDS011;14887;51.252;7.470;2022-11-20T03:44:21;46.80;;;14.70;;
27438;SDS011;14887;51.252;7.470;2022-11-20T03:46:48;38.00;;;14.20;;
27438;SDS011;14887;51.252;7.470;2022-11-20T03:49:13;43.97;;;13.73;;
27438;SDS011;14887;51.252;7.470;2022-11-20T03:51:39;47.20;;;15.67;;
27438;SDS011;14887;51.252;7.470;2022-11-20T03:54:06;37.07;;;13.90;;
27438;SDS011;14887;51.252;7.470;2022-11-20T03:56:35;31.43;;;12.43;;
27438;SDS011;14887;51.252;7.470;2022-11-20T03:59:01;37.17;;;14.10;;
27438;SDS011;14887;51.252;7.470;2022-11-20T04:01:29;31.90;;;12.70;;
27438;SDS011;14887;51.252;7.470;2022-11-20T04:03:55;42.47;;;13.77;;
27438;SDS011;14887;51.252;7.470;2022-11-20T04:06:22;36.67;;;15.13;;
27438;SDS011;14887;51.252;7.470;2022-11-20T04:08:49;46.83;;;15.70;;
27438;SDS011;14887;51.252;7.470;2022-11-20T04:11:16;34.83;;;12.90;;
27438;SDS011;14887;51.252;7.470;2022-11-20T04:13:42;32.97;;;13.23;;
27438;SDS011;14887;51.252;7.470;2022-11-20T04:16:11;34.93;;;14.10;;
27438;SDS011;14887;51.252;7.470;2022-11-20T04:18:37;49.80;;;12.47;;
27438;SDS011;14887;51.252;7.470;2022-11-20T04:21:03;34.97;;;12.67;;
27438;SDS011;14887;51.252;7.470;2022-11-20T04:23:29;42.53;;;16.03;;
27438;SDS011;14887;51.252;7.470;2022-11-20T04:26:00;41.30;;;14.97;;
27438;SDS011;14887;51.252;7.470;2022-11-20T04:28:27;29.83;;;12.00;;
27438;SDS011;14887;51.252;7.470;2022-11-20T04:30:53;43.43;;;15.70;;
27438;SDS011;14887;51.252;7.470;2022-11-20T04:33:19;35.07;;;13.03;;
27438;SDS011;14887;51.252;7.470;2022-11-20T04:35:45;40.00;;;14.47;;
27438;SDS011;14887;51.252;7.470;2022-11-20T04:38:12;40.53;;;14.80;;
27438;SDS011;14887;51.252;7.470;2022-11-20T04:40:38;44.33;;;15.40;;
27438;SDS011;14887;51.252;7.470;2022-11-20T04:43:04;37.27;;;13.10;;
27438;SDS011;14887;51.252;7.470;2022-11-20T04:45:31;36.13;;;12.70;;
27438;SDS011;14887;51.252;7.470;2022-11-20T04:47:57;43.13;;;15.37;;
27438;SDS011;14887;51.252;7.470;2022-11-20T04:50:23;38.23;;;12.43;;
27438;SDS011;14887;51.252;7.470;2022-11-20T04:52:49;39.30;;;14.57;;
27438;SDS011;14887;51.252;7.470;2022-11-20T04:55:15;32.07;;;12.70;;
27438;SDS011;14887;51.252;7.470;2022-11-20T04:57:41;38.00;;;14.47;;
27438;SDS011;14887;51.252;7.470;2022-11-20T05:00:07;83.57;;;16.27;;
27438;SDS011;14887;51.252;7.470;2022-11-20T05:02:33;39.97;;;14.40;;
27438;SDS011;14887;51.252;7.470;2022-11-20T05:04:59;48.13;;;15.33;;
27438;SDS011;14887;51.252;7.470;2022-11-20T05:07:25;26.00;;;12.30;;
27438;SDS011;14887;51.252;7.470;2022-11-20T05:09:51;26.33;;;10.13;;
27438;SDS011;14887;51.252;7.470;2022-11-20T05:12:17;33.17;;;11.87;;
27438;SDS011;14887;51.252;7.470;2022-11-20T05:14:42;29.53;;;12.83;;
27438;SDS011;14887;51.252;7.470;2022-11-20T05:17:12;25.53;;;9.57;;
27438;SDS011;14887;51.252;7.470;2022-11-20T05:19:38;31.33;;;9.67;;
27438;SDS011;14887;51.252;7.470;2022-11-20T05:22:04;22.67;;;9.00;;
27438;SDS011;14887;51.252;7.470;2022-11-20T05:24:30;32.13;;;10.90;;
27438;SDS011;14887;51.252;7.470;2022-11-20T05:26:56;43.73;;;12.37;;
27438;SDS011;14887;51.252;7.470;2022-11-20T05:29:22;29.07;;;11.30;;
27438;SDS011;14887;51.252;7.470;2022-11-20T05:31:48;19.33;;;7.50;;
27438;SDS011;14887;51.252;7.470;2022-11-20T05:34:14;21.83;;;8.93;;
27438;SDS011;14887;51.252;7.470;2022-11-20T05:36:40;25.50;;;8.53;;
27438;SDS011;14887;51.252;7.470;2022-11-20T05:39:06;24.70;;;9.30;;
27438;SDS011;14887;51.252;7.470;2022-11-20T05:41:32;19.90;;;7.57;;
27438;SDS011;14887;51.252;7.470;2022-11-20T05:43:58;25.87;;;9.40;;
27438;SDS011;14887;51.252;7.470;2022-11-20T05:46:24;23.60;;;8.80;;
27438;SDS011;14887;51.252;7.470;2022-11-20T05:48:50;26.30;;;10.17;;
27438;SDS011;14887;51.252;7.470;2022-11-20T05:51:17;20.97;;;9.20;;
27438;SDS011;14887;51.252;7.470;2022-11-20T05:53:43;23.40;;;10.03;;
27438;SDS011;14887;51.252;7.470;2022-11-20T05:56:11;22.77;;;8.97;;
27438;SDS011;14887;51.252;7.470;2022-11-20T05:58:37;23.33;;;9.93;;
27438;SDS011;14887;51.252;7.470;2022-11-20T06:01:07;38.20;;;12.00;;
27438;SDS011;14887;51.252;7.470;2022-11-20T06:03:34;31.87;;;10.57;;
27438;SDS011;14887;51.252;7.470;2022-11-20T06:06:00;28.83;;;9.23;;
27438;SDS011;14887;51.252;7.470;2022-11-20T06:08:28;28.67;;;10.70;;
27438;SDS011;14887;51.252;7.470;2022-11-20T06:10:54;27.60;;;10.80;;
27438;SDS011;14887;51.252;7.470;2022-11-20T06:13:20;25.00;;;10.33;;
27438;SDS011;14887;51.252;7.470;2022-11-20T06:15:52;23.13;;;10.10;;
27438;SDS011;14887;51.252;7.470;2022-11-20T06:18:19;23.20;;;8.97;;
27438;SDS011;14887;51.252;7.470;2022-11-20T06:20:45;31.30;;;11.60;;
27438;SDS011;14887;51.252;7.470;2022-11-20T06:23:12;23.40;;;8.67;;
27438;SDS011;14887;51.252;7.470;2022-11-20T06:25:38;24.47;;;8.70;;
27438;SDS011;14887;51.252;7.470;2022-11-20T06:28:04;27.57;;;10.73;;
27438;SDS011;14887;51.252;7.470;2022-11-20T06:30:30;25.30;;;10.60;;
27438;SDS011;14887;51.252;7.470;2022-11-20T06:32:56;25.50;;;11.40;;
27438;SDS011;14887;51.252;7.470;2022-11-20T06:35:22;25.73;;;10.10;;
27438;SDS011;14887;51.252;7.470;2022-11-20T06:37:48;22.40;;;10.30;;
27438;SDS011;14887;51.252;7.470;2022-11-20T06:40:14;24.43;;;10.60;;
27438;SDS011;14887;51.252;7.470;2022-11-20T06:42:40;28.10;;;10.83;;
27438;SDS011;14887;51.252;7.470;2022-11-20T06:45:06;34.90;;;13.30;;
27438;SDS011;14887;51.252;7.470;2022-11-20T06:47:32;28.50;;;11.23;;
27438;SDS011;14887;51.252;7.470;2022-11-20T06:49:58;33.40;;;12.97;;
27438;SDS011;14887;51.252;7.470;2022-11-20T06:52:24;34.30;;;12.30;;
27438;SDS011;14887;51.252;7.470;2022-11-20T06:54:50;40.27;;;12.63;;
27438;SDS011;14887;51.252;7.470;2022-11-20T06:57:16;30.47;;;12.20;;
27438;SDS011;14887;51.252;7.470;2022-11-20T06:59:42;28.77;;;10.60;;
27438;SDS011;14887;51.252;7.470;2022-11-20T07:02:11;24.93;;;11.17;;
27438;SDS011;14887;51.252;7.470;2022-11-20T07:04:38;23.37;;;9.83;;
27438;SDS011;14887;51.252;7.470;2022-11-20T07:07:04;23.23;;;10.07;;
27438;SDS011;14887;51.252;7.470;2022-11-20T07:09:31;29.00;;;11.20;;
27438;SDS011;14887;51.252;7.470;2022-11-20T07:11:57;31.10;;;10.67;;
27438;SDS011;14887;51.252;7.470;2022-11-20T07:14:23;31.17;;;11.37;;
27438;SDS011;14887;51.252;7.470;2022-11-20T07:16:49;37.47;;;12.73;;
27438;SDS011;14887;51.252;7.470;2022-11-20T07:19:15;22.47;;;10.70;;
27438;SDS011;14887;51.252;7.470;2022-11-20T07:21:41;27.80;;;10.93;;
27438;SDS011;14887;51.252;7.470;2022-11-20T07:24:07;32.13;;;11.77;;
27438;SDS011;14887;51.252;7.470;2022-11-20T07:26:33;32.70;;;13.57;;
27438;SDS011;14887;51.252;7.470;2022-11-20T07:28:59;24.53;;;11.67;;
27438;SDS011;14887;51.252;7.470;2022-11-20T07:31:25;27.70;;;11.83;;
27438;SDS011;14887;51.252;7.470;2022-11-20T07:33:51;26.97;;;12.13;;
27438;SDS011;14887;51.252;7.470;2022-11-20T07:36:16;35.70;;;13.13;;
27438;SDS011;14887;51.252;7.470;2022-11-20T07:38:42;33.73;;;13.10;;
27438;SDS011;14887;51.252;7.470;2022-11-20T07:41:08;36.17;;;12.47;;
27438;SDS011;14887;51.252;7.470;2022-11-20T07:43:34;28.90;;;12.93;;
27438;SDS011;14887;51.252;7.470;2022-11-20T07:46:00;24.57;;;10.40;;
27438;SDS011;14887;51.252;7.470;2022-11-20T07:48:26;28.83;;;12.10;;
27438;SDS011;14887;51.252;7.470;2022-11-20T07:50:53;30.10;;;12.50;;
27438;SDS011;14887;51.252;7.470;2022-11-20T07:53:19;25.80;;;10.97;;
27438;SDS011;14887;51.252;7.470;2022-11-20T07:55:46;28.77;;;11.60;;
27438;SDS011;14887;51.252;7.470;2022-11-20T07:58:12;24.27;;;10.77;;
27438;SDS011;14887;51.252;7.470;2022-11-20T08:00:41;28.23;;;12.20;;
27438;SDS011;14887;51.252;7.470;2022-11-20T08:03:07;27.20;;;11.37;;
27438;SDS011;14887;51.252;7.470;2022-11-20T08:05:33;27.40;;;12.60;;
27438;SDS011;14887;51.252;7.470;2022-11-20T08:07:59;25.00;;;10.67;;
27438;SDS011;14887;51.252;7.470;2022-11-20T08:10:25;26.67;;;11.30;;
27438;SDS011;14887;51.252;7.470;2022-11-20T08:12:52;23.63;;;11.00;;
27438;SDS011;14887;51.252;7.470;2022-11-20T08:15:38;24.17;;;10.87;;
27438;SDS011;14887;51.252;7.470;2022-11-20T08:18:05;28.83;;;10.73;;
27438;SDS011;14887;51.252;7.470;2022-11-20T08:20:32;27.70;;;11.37;;
27438;SDS011;14887;51.252;7.470;2022-11-20T08:22:59;23.03;;;10.00;;
27438;SDS011;14887;51.252;7.470;2022-11-20T08:25:26;24.70;;;11.40;;
27438;SDS011;14887;51.252;7.470;2022-11-20T08:27:51;24.80;;;11.30;;
27438;SDS011;14887;51.252;7.470;2022-11-20T08:30:18;20.20;;;9.50;;
27438;SDS011;14887;51.252;7.470;2022-11-20T08:32:43;19.93;;;9.10;;
27438;SDS011;14887;51.252;7.470;2022-11-20T08:35:09;22.33;;;10.50;;
27438;SDS011;14887;51.252;7.470;2022-11-20T08:37:35;22.33;;;10.60;;
27438;SDS011;14887;51.252;7.470;2022-11-20T08:40:06;19.43;;;9.90;;
27438;SDS011;14887;51.252;7.470;2022-11-20T08:42:32;22.70;;;10.70;;
27438;SDS011;14887;51.252;7.470;2022-11-20T08:44:58;23.40;;;11.97;;
27438;SDS011;14887;51.252;7.470;2022-11-20T08:47:24;20.93;;;10.87;;
27438;SDS011;14887;51.252;7.470;2022-11-20T08:49:50;26.30;;;11.80;;
27438;SDS011;14887;51.252;7.470;2022-11-20T08:52:16;20.17;;;10.10;;
27438;SDS011;14887;51.252;7.470;2022-11-20T08:54:42;21.80;;;11.33;;
27438;SDS011;14887;51.252;7.470;2022-11-20T08:57:08;20.70;;;9.93;;
27438;SDS011;14887;51.252;7.470;2022-11-20T08:59:34;18.40;;;8.90;;
27438;SDS011;14887;51.252;7.470;2022-11-20T09:02:00;22.40;;;9.23;;
27438;SDS011;14887;51.252;7.470;2022-11-20T09:04:26;18.23;;;9.50;;
27438;SDS011;14887;51.252;7.470;2022-11-20T09:06:51;13.50;;;8.20;;
27438;SDS011;14887;51.252;7.470;2022-11-20T09:09:17;18.63;;;8.90;;
27438;SDS011;14887;51.252;7.470;2022-11-20T09:11:44;24.03;;;9.20;;
27438;SDS011;14887;51.252;7.470;2022-11-20T09:14:10;23.53;;;11.63;;
27438;SDS011;14887;51.252;7.470;2022-11-20T09:16:36;21.03;;;10.10;;
27438;SDS011;14887;51.252;7.470;2022-11-20T09:19:02;19.00;;;9.10;;
27438;SDS011;14887;51.252;7.470;2022-11-20T09:21:27;19.33;;;9.80;;
27438;SDS011;14887;51.252;7.470;2022-11-20T09:23:53;16.37;;;8.73;;
27438;SDS011;14887;51.252;7.470;2022-11-20T09:26:19;17.70;;;8.93;;
27438;SDS011;14887;51.252;7.470;2022-11-20T09:28:45;19.33;;;8.00;;
27438;SDS011;14887;51.252;7.470;2022-11-20T09:31:19;18.03;;;7.43;;
27438;SDS011;14887;51.252;7.470;2022-11-20T09:33:47;13.97;;;6.80;;
27438;SDS011;14887;51.252;7.470;2022-11-20T09:36:13;14.87;;;7.90;;
27438;SDS011;14887;51.252;7.470;2022-11-20T09:38:40;14.33;;;7.23;;
27438;SDS011;14887;51.252;7.470;2022-11-20T09:41:10;14.97;;;6.27;;
27438;SDS011;14887;51.252;7.470;2022-11-20T09:48:54;17.60;;;9.40;;
27438;SDS011;14887;51.252;7.470;2022-11-20T09:51:43;12.70;;;6.80;;
27438;SDS011;14887;51.252;7.470;2022-11-20T09:54:18;12.53;;;5.30;;
27438;SDS011;14887;51.252;7.470;2022-11-20T09:56:45;8.80;;;4.60;;
27438;SDS011;14887;51.252;7.470;2022-11-20T10:01:57;10.50;;;5.30;;
27438;SDS011;14887;51.252;7.470;2022-11-20T10:04:24;12.93;;;6.27;;
27438;SDS011;14887;51.252;7.470;2022-11-20T10:06:53;12.50;;;6.33;;
27438;SDS011;14887;51.252;7.470;2022-11-20T10:12:09;12.47;;;6.60;;
27438;SDS011;14887;51.252;7.470;2022-11-20T10:17:16;13.87;;;6.30;;
27438;SDS011;14887;51.252;7.470;2022-11-20T10:19:47;12.83;;;5.67;;
27438;SDS011;14887;51.252;7.470;2022-11-20T10:22:30;9.00;;;4.80;;
27438;SDS011;14887;51.252;7.470;2022-11-20T10:25:02;12.87;;;7.10;;
27438;SDS011;14887;51.252;7.470;2022-11-20T10:30:09;12.90;;;7.20;;
27438;SDS011;14887;51.252;7.470;2022-11-20T10:35:29;14.30;;;6.30;;
27438;SDS011;14887;51.252;7.470;2022-11-20T10:37:58;13.40;;;6.33;;
27438;SDS011;14887;51.252;7.470;2022-11-20T10:40:35;14.93;;;6.97;;
27438;SDS011;14887;51.252;7.470;2022-11-20T10:43:10;14.50;;;7.73;;
27438;SDS011;14887;51.252;7.470;2022-11-20T10:48:26;13.83;;;6.00;;
27438;SDS011;14887;51.252;7.470;2022-11-20T10:50:55;16.33;;;7.80;;
27438;SDS011;14887;51.252;7.470;2022-11-20T10:53:33;9.97;;;5.40;;
27438;SDS011;14887;51.252;7.470;2022-11-20T10:56:29;14.43;;;7.00;;
27438;SDS011;14887;51.252;7.470;2022-11-20T11:01:22;24.50;;;9.43;;
27438;SDS011;14887;51.252;7.470;2022-11-20T11:03:49;16.37;;;7.07;;
27438;SDS011;14887;51.252;7.470;2022-11-20T11:08:58;16.73;;;7.73;;
27438;SDS011;14887;51.252;7.470;2022-11-20T11:11:28;21.10;;;9.50;;
27438;SDS011;14887;51.252;7.470;2022-11-20T11:14:14;24.33;;;9.67;;
27438;SDS011;14887;51.252;7.470;2022-11-20T11:16:50;15.73;;;8.17;;
27438;SDS011;14887;51.252;7.470;2022-11-20T11:19:16;13.17;;;7.33;;
27438;SDS011;14887;51.252;7.470;2022-11-20T11:21:46;19.23;;;9.43;;
27438;SDS011;14887;51.252;7.470;2022-11-20T11:24:22;19.90;;;9.77;;
27438;SDS011;14887;51.252;7.470;2022-11-20T11:26:58;19.70;;;9.20;;
27438;SDS011;14887;51.252;7.470;2022-11-20T11:29:24;16.73;;;8.40;;
27438;SDS011;14887;51.252;7.470;2022-11-20T11:32:04;17.20;;;8.47;;
27438;SDS011;14887;51.252;7.470;2022-11-20T11:34:30;16.50;;;7.63;;
27438;SDS011;14887;51.252;7.470;2022-11-20T11:36:57;18.23;;;9.17;;
27438;SDS011;14887;51.252;7.470;2022-11-20T11:39:23;16.97;;;8.40;;
27438;SDS011;14887;51.252;7.470;2022-11-20T11:41:49;15.20;;;8.53;;
27438;SDS011;14887;51.252;7.470;2022-11-20T11:44:19;17.00;;;8.23;;
27438;SDS011;14887;51.252;7.470;2022-11-20T11:47:05;15.43;;;8.27;;
27438;SDS011;14887;51.252;7.470;2022-11-20T11:49:34;19.87;;;8.90;;
27438;SDS011;14887;51.252;7.470;2022-11-20T11:52:03;19.77;;;9.83;;
27438;SDS011;14887;51.252;7.470;2022-11-20T11:54:42;18.47;;;8.33;;
27438;SDS011;14887;51.252;7.470;2022-11-20T11:57:14;19.23;;;8.07;;
27438;SDS011;14887;51.252;7.470;2022-11-20T12:00:27;25.80;;;11.30;;
27438;SDS011;14887;51.252;7.470;2022-11-20T12:04:57;16.73;;;8.93;;
27438;SDS011;14887;51.252;7.470;2022-11-20T12:09:54;15.90;;;8.33;;
27438;SDS011;14887;51.252;7.470;2022-11-20T12:12:24;18.07;;;7.80;;
27438;SDS011;14887;51.252;7.470;2022-11-20T12:14:53;17.87;;;8.83;;
27438;SDS011;14887;51.252;7.470;2022-11-20T12:17:20;24.93;;;9.40;;
27438;SDS011;14887;51.252;7.470;2022-11-20T12:19:46;26.97;;;9.70;;
27438;SDS011;14887;51.252;7.470;2022-11-20T12:30:16;35.37;;;14.30;;
27438;SDS011;14887;51.252;7.470;2022-11-20T12:35:24;29.60;;;11.90;;
27438;SDS011;14887;51.252;7.470;2022-11-20T12:38:06;122.53;;;42.43;;
27438;SDS011;14887;51.252;7.470;2022-11-20T12:40:49;37.47;;;14.43;;
27438;SDS011;14887;51.252;7.470;2022-11-20T12:43:24;164.57;;;50.80;;
27438;SDS011;14887;51.252;7.470;2022-11-20T12:46:16;122.77;;;41.50;;
27438;SDS011;14887;51.252;7.470;2022-11-20T13:01:53;32.37;;;14.93;;
27438;SDS011;14887;51.252;7.470;2022-11-20T13:06:47;28.30;;;13.80;;
27438;SDS011;14887;51.252;7.470;2022-11-20T13:09:14;32.00;;;14.57;;
27438;SDS011;14887;51.252;7.470;2022-11-20T13:11:44;24.97;;;11.80;;
27438;SDS011;14887;51.252;7.470;2022-11-20T13:14:14;22.83;;;10.97;;
27438;SDS011;14887;51.252;7.470;2022-11-20T13:19:28;29.70;;;12.87;;
27438;SDS011;14887;51.252;7.470;2022-11-20T13:21:55;26.73;;;12.20;;
27438;SDS011;14887;51.252;7.470;2022-11-20T13:24:22;29.37;;;11.50;;
27438;SDS011;14887;51.252;7.470;2022-11-20T13:27:02;25.27;;;11.30;;
27438;SDS011;14887;51.252;7.470;2022-11-20T13:29:29;27.17;;;13.20;;
27438;SDS011;14887;51.252;7.470;2022-11-20T13:32:05;36.27;;;12.30;;
27438;SDS011;14887;51.252;7.470;2022-11-20T13:34:31;34.40;;;13.90;;
27438;SDS011;14887;51.252;7.470;2022-11-20T13:36:58;28.23;;;13.00;;
27438;SDS011;14887;51.252;7.470;2022-11-20T13:39:32;33.37;;;14.00;;
27438;SDS011;14887;51.252;7.470;2022-11-20T13:42:00;27.40;;;12.80;;
27438;SDS011;14887;51.252;7.470;2022-11-20T13:44:39;28.60;;;14.10;;
27438;SDS011;14887;51.252;7.470;2022-11-20T13:47:21;32.10;;;14.07;;
27438;SDS011;14887;51.252;7.470;2022-11-20T13:49:48;36.30;;;13.77;;
27438;SDS011;14887;51.252;7.470;2022-11-20T13:52:22;37.23;;;14.60;;
27438;SDS011;14887;51.252;7.470;2022-11-20T13:54:58;35.87;;;13.93;;
27438;SDS011;14887;51.252;7.470;2022-11-20T14:02:19;48.63;;;15.67;;
27438;SDS011;14887;51.252;7.470;2022-11-20T14:04:47;38.37;;;14.90;;
27438;SDS011;14887;51.252;7.470;2022-11-20T14:07:13;37.33;;;13.07;;
27438;SDS011;14887;51.252;7.470;2022-11-20T14:09:48;33.03;;;13.67;;
27438;SDS011;14887;51.252;7.470;2022-11-20T14:12:15;36.87;;;15.43;;
27438;SDS011;14887;51.252;7.470;2022-11-20T14:14:49;36.43;;;14.77;;
27438;SDS011;14887;51.252;7.470;2022-11-20T14:17:21;37.93;;;16.47;;
27438;SDS011;14887;51.252;7.470;2022-11-20T14:19:48;39.63;;;15.77;;
27438;SDS011;14887;51.252;7.470;2022-11-20T14:22:25;41.33;;;14.03;;
27438;SDS011;14887;51.252;7.470;2022-11-20T14:25:01;38.70;;;13.80;;
27438;SDS011;14887;51.252;7.470;2022-11-20T14:27:27;43.27;;;16.00;;
27438;SDS011;14887;51.252;7.470;2022-11-20T14:29:53;36.10;;;14.70;;
27438;SDS011;14887;51.252;7.470;2022-11-20T14:32:20;51.40;;;16.77;;
27438;SDS011;14887;51.252;7.470;2022-11-20T14:34:48;45.67;;;15.40;;
27438;SDS011;14887;51.252;7.470;2022-11-20T14:37:20;54.27;;;17.40;;
27438;SDS011;14887;51.252;7.470;2022-11-20T14:39:54;58.80;;;19.47;;
27438;SDS011;14887;51.252;7.470;2022-11-20T14:42:24;55.77;;;16.57;;
27438;SDS011;14887;51.252;7.470;2022-11-20T14:44:52;52.87;;;16.83;;
27438;SDS011;14887;51.252;7.470;2022-11-20T14:47:21;55.90;;;18.30;;
27438;SDS011;14887;51.252;7.470;2022-11-20T14:49:47;48.20;;;18.40;;
27438;SDS011;14887;51.252;7.470;2022-11-20T14:52:16;61.53;;;21.30;;
27438;SDS011;14887;51.252;7.470;2022-11-20T14:54:43;56.57;;;18.83;;
27438;SDS011;14887;51.252;7.470;2022-11-20T14:57:18;59.30;;;21.23;;
27438;SDS011;14887;51.252;7.470;2022-11-20T14:59:45;71.07;;;16.57;;
27438;SDS011;14887;51.252;7.470;2022-11-20T15:02:11;47.33;;;17.97;;
27438;SDS011;14887;51.252;7.470;2022-11-20T15:04:44;61.93;;;21.37;;
27438;SDS011;14887;51.252;7.470;2022-11-20T15:07:11;47.13;;;18.87;;
27438;SDS011;14887;51.252;7.470;2022-11-20T15:09:37;54.17;;;25.90;;
27438;SDS011;14887;51.252;7.470;2022-11-20T15:12:03;61.73;;;23.90;;
27438;SDS011;14887;51.252;7.470;2022-11-20T15:14:30;43.20;;;18.00;;
27438;SDS011;14887;51.252;7.470;2022-11-20T15:16:57;55.97;;;20.90;;
27438;SDS011;14887;51.252;7.470;2022-11-20T15:19:25;53.87;;;19.23;;
27438;SDS011;14887;51.252;7.470;2022-11-20T15:21:52;50.07;;;20.00;;
27438;SDS011;14887;51.252;7.470;2022-11-20T15:24:18;54.53;;;18.60;;
27438;SDS011;14887;51.252;7.470;2022-11-20T15:26:44;50.37;;;20.67;;
27438;SDS011;14887;51.252;7.470;2022-11-20T15:29:11;46.70;;;16.63;;
27438;SDS011;14887;51.252;7.470;2022-11-20T15:31:38;52.27;;;19.10;;
27438;SDS011;14887;51.252;7.470;2022-11-20T15:34:13;48.33;;;18.73;;
27438;SDS011;14887;51.252;7.470;2022-11-20T15:36:39;48.23;;;18.83;;
27438;SDS011;14887;51.252;7.470;2022-11-20T15:39:06;45.03;;;13.97;;
27438;SDS011;14887;51.252;7.470;2022-11-20T15:41:32;42.03;;;15.87;;
27438;SDS011;14887;51.252;7.470;2022-11-20T15:43:58;43.03;;;16.10;;
27438;SDS011;14887;51.252;7.470;2022-11-20T15:46:28;41.13;;;16.10;;